sensor_id;sensor_type;location;lat;lon;timestamp;pressure;altitude;pressure_sealevel;temperature
70969;BMP280;58630;43.022;25.100;2023-06-14T00:00:47;;;;22.70
70969;BMP280;58630;43.022;25.100;2023-06-14T00:03:14;;;;22.70
70969;BMP280;58630;43.022;25.100;2023-06-14T00:05:43;;;;22.70
70969;BMP280;58630;43.022;25.100;2023-06-14T00:08:11;;;;22.70
70969;BMP280;58630;43.022;25.100;2023-06-14T00:10:37;;;;22.70
70969;BMP280;58630;43.022;25.100;2023-06-14T00:13:04;;;;22.70
70969;BMP280;58630;43.022;25.100;2023-06-14T00:15:33;;;;22.70
70969;BMP280;58630;43.022;25.100;2023-06-14T00:18:00;;;;22.70
70969;BMP280;58630;43.022;25.100;2023-06-14T00:20:29;;;;22.70
70969;BMP280;58630;43.022;25.100;2023-06-14T00:22:56;;;;22.70
70969;BMP280;58630;43.022;25.100;2023-06-14T00:25:24;;;;22.70
70969;BMP280;58630;43.022;25.100;2023-06-14T00:27:53;;;;22.70
70969;BMP280;58630;43.022;25.100;2023-06-14T00:30:19;;;;22.60
70969;BMP280;58630;43.022;25.100;2023-06-14T00:32:45;;;;22.60
70969;BMP280;58630;43.022;25.100;2023-06-14T00:35:11;;;;22.60
70969;BMP280;58630;43.022;25.100;2023-06-14T00:37:36;;;;22.60
70969;BMP280;58630;43.022;25.100;2023-06-14T00:40:03;;;;22.60
70969;BMP280;58630;43.022;25.100;2023-06-14T00:42:29;;;;22.60
70969;BMP280;58630;43.022;25.100;2023-06-14T00:44:55;;;;22.60
70969;BMP280;58630;43.022;25.100;2023-06-14T00:47:20;;;;22.60
70969;BMP280;58630;43.022;25.100;2023-06-14T00:49:47;;;;22.60
70969;BMP280;58630;43.022;25.100;2023-06-14T00:52:13;;;;22.60
70969;BMP280;58630;43.022;25.100;2023-06-14T00:54:40;;;;22.60
70969;BMP280;58630;43.022;25.100;2023-06-14T00:57:05;;;;22.60
70969;BMP280;58630;43.022;25.100;2023-06-14T00:59:32;;;;22.50
70969;BMP280;58630;43.022;25.100;2023-06-14T01:01:58;;;;22.50
70969;BMP280;58630;43.022;25.100;2023-06-14T01:04:23;;;;22.50
70969;BMP280;58630;43.022;25.100;2023-06-14T01:06:54;;;;22.50
70969;BMP280;58630;43.022;25.100;2023-06-14T01:09:29;;;;22.50
70969;BMP280;58630;43.022;25.100;2023-06-14T01:12:11;;;;22.50
70969;BMP280;58630;43.022;25.100;2023-06-14T01:14:39;;;;22.50
70969;BMP280;58630;43.022;25.100;2023-06-14T01:17:05;;;;22.50
70969;BMP280;58630;43.022;25.100;2023-06-14T01:19:30;;;;22.50
70969;BMP280;58630;43.022;25.100;2023-06-14T01:22:00;;;;22.50
70969;BMP280;58630;43.022;25.100;2023-06-14T01:24:26;;;;22.50
70969;BMP280;58630;43.022;25.100;2023-06-14T01:26:57;;;;22.50
70969;BMP280;58630;43.022;25.100;2023-06-14T01:29:23;;;;22.40
70969;BMP280;58630;43.022;25.100;2023-06-14T01:31:50;;;;22.40
70969;BMP280;58630;43.022;25.100;2023-06-14T01:34:16;;;;22.40
70969;BMP280;58630;43.022;25.100;2023-06-14T01:36:43;;;;22.40
70969;BMP280;58630;43.022;25.100;2023-06-14T01:39:10;;;;22.40
70969;BMP280;58630;43.022;25.100;2023-06-14T01:41:37;;;;22.40
70969;BMP280;58630;43.022;25.100;2023-06-14T01:44:03;;;;22.40
70969;BMP280;58630;43.022;25.100;2023-06-14T01:46:30;;;;22.40
70969;BMP280;58630;43.022;25.100;2023-06-14T01:48:55;;;;22.40
70969;BMP280;58630;43.022;25.100;2023-06-14T01:51:21;;;;22.40
70969;BMP280;58630;43.022;25.100;2023-06-14T01:53:47;;;;22.40
70969;BMP280;58630;43.022;25.100;2023-06-14T01:56:13;;;;22.40
70969;BMP280;58630;43.022;25.100;2023-06-14T01:58:39;;;;22.40
70969;BMP280;58630;43.022;25.100;2023-06-14T02:01:05;;;;22.30
70969;BMP280;58630;43.022;25.100;2023-06-14T02:03:32;;;;22.30
70969;BMP280;58630;43.022;25.100;2023-06-14T02:05:58;;;;22.30
70969;BMP280;58630;43.022;25.100;2023-06-14T02:08:23;;;;22.30
70969;BMP280;58630;43.022;25.100;2023-06-14T02:10:49;;;;22.30
70969;BMP280;58630;43.022;25.100;2023-06-14T02:13:14;;;;22.30
70969;BMP280;58630;43.022;25.100;2023-06-14T02:15:40;;;;22.30
70969;BMP280;58630;43.022;25.100;2023-06-14T02:18:08;;;;22.30
70969;BMP280;58630;43.022;25.100;2023-06-14T02:20:34;;;;22.30
70969;BMP280;58630;43.022;25.100;2023-06-14T02:23:00;;;;22.30
70969;BMP280;58630;43.022;25.100;2023-06-14T02:25:26;;;;22.30
70969;BMP280;58630;43.022;25.100;2023-06-14T02:27:53;;;;22.30
70969;BMP280;58630;43.022;25.100;2023-06-14T02:30:20;;;;22.20
70969;BMP280;58630;43.022;25.100;2023-06-14T02:32:46;;;;22.30
70969;BMP280;58630;43.022;25.100;2023-06-14T02:35:13;;;;22.30
70969;BMP280;58630;43.022;25.100;2023-06-14T02:37:39;;;;22.20
70969;BMP280;58630;43.022;25.100;2023-06-14T02:40:05;;;;22.20
70969;BMP280;58630;43.022;25.100;2023-06-14T02:42:31;;;;22.20
70969;BMP280;58630;43.022;25.100;2023-06-14T02:44:57;;;;22.20
70969;BMP280;58630;43.022;25.100;2023-06-14T02:47:22;;;;22.20
70969;BMP280;58630;43.022;25.100;2023-06-14T02:49:48;;;;22.20
70969;BMP280;58630;43.022;25.100;2023-06-14T02:52:13;;;;22.20
70969;BMP280;58630;43.022;25.100;2023-06-14T02:54:39;;;;22.20
70969;BMP280;58630;43.022;25.100;2023-06-14T02:57:05;;;;22.20
70969;BMP280;58630;43.022;25.100;2023-06-14T02:59:33;;;;22.20
70969;BMP280;58630;43.022;25.100;2023-06-14T03:01:58;;;;22.20
70969;BMP280;58630;43.022;25.100;2023-06-14T03:04:24;;;;22.20
70969;BMP280;58630;43.022;25.100;2023-06-14T03:06:51;;;;22.20
70969;BMP280;58630;43.022;25.100;2023-06-14T03:09:17;;;;22.20
70969;BMP280;58630;43.022;25.100;2023-06-14T03:11:42;;;;22.20
70969;BMP280;58630;43.022;25.100;2023-06-14T03:14:08;;;;22.20
70969;BMP280;58630;43.022;25.100;2023-06-14T03:16:33;;;;22.20
70969;BMP280;58630;43.022;25.100;2023-06-14T03:19:07;;;;22.20
70969;BMP280;58630;43.022;25.100;2023-06-14T03:21:41;;;;22.10
70969;BMP280;58630;43.022;25.100;2023-06-14T03:24:09;;;;22.10
70969;BMP280;58630;43.022;25.100;2023-06-14T03:26:35;;;;22.10
70969;BMP280;58630;43.022;25.100;2023-06-14T03:29:02;;;;22.10
70969;BMP280;58630;43.022;25.100;2023-06-14T03:31:28;;;;22.10
70969;BMP280;58630;43.022;25.100;2023-06-14T03:33:58;;;;22.10
70969;BMP280;58630;43.022;25.100;2023-06-14T03:36:23;;;;22.10
70969;BMP280;58630;43.022;25.100;2023-06-14T03:38:49;;;;22.10
70969;BMP280;58630;43.022;25.100;2023-06-14T03:41:14;;;;22.10
70969;BMP280;58630;43.022;25.100;2023-06-14T03:43:40;;;;22.10
70969;BMP280;58630;43.022;25.100;2023-06-14T03:46:05;;;;22.10
70969;BMP280;58630;43.022;25.100;2023-06-14T03:48:31;;;;22.10
70969;BMP280;58630;43.022;25.100;2023-06-14T03:50:57;;;;22.10
70969;BMP280;58630;43.022;25.100;2023-06-14T03:53:23;;;;22.10
70969;BMP280;58630;43.022;25.100;2023-06-14T03:55:49;;;;22.10
70969;BMP280;58630;43.022;25.100;2023-06-14T03:58:15;;;;22.10
70969;BMP280;58630;43.022;25.100;2023-06-14T04:00:41;;;;22.10
70969;BMP280;58630;43.022;25.100;2023-06-14T04:03:06;;;;22.00
70969;BMP280;58630;43.022;25.100;2023-06-14T04:05:32;;;;22.00
70969;BMP280;58630;43.022;25.100;2023-06-14T04:07:57;;;;22.00
70969;BMP280;58630;43.022;25.100;2023-06-14T04:10:25;;;;22.00
70969;BMP280;58630;43.022;25.100;2023-06-14T04:12:50;;;;22.00
70969;BMP280;58630;43.022;25.100;2023-06-14T04:15:17;;;;22.00
70969;BMP280;58630;43.022;25.100;2023-06-14T04:17:42;;;;22.00
70969;BMP280;58630;43.022;25.100;2023-06-14T04:20:08;;;;22.00
70969;BMP280;58630;43.022;25.100;2023-06-14T04:22:35;;;;22.00
70969;BMP280;58630;43.022;25.100;2023-06-14T04:25:01;;;;22.00
70969;BMP280;58630;43.022;25.100;2023-06-14T04:27:27;;;;22.00
70969;BMP280;58630;43.022;25.100;2023-06-14T04:29:53;;;;22.00
70969;BMP280;58630;43.022;25.100;2023-06-14T04:32:25;;;;22.00
70969;BMP280;58630;43.022;25.100;2023-06-14T04:34:55;;;;22.00
70969;BMP280;58630;43.022;25.100;2023-06-14T04:37:21;;;;22.00
70969;BMP280;58630;43.022;25.100;2023-06-14T04:39:47;;;;22.00
70969;BMP280;58630;43.022;25.100;2023-06-14T04:42:12;;;;22.00
70969;BMP280;58630;43.022;25.100;2023-06-14T04:44:43;;;;22.00
70969;BMP280;58630;43.022;25.100;2023-06-14T04:47:12;;;;22.00
70969;BMP280;58630;43.022;25.100;2023-06-14T04:49:38;;;;22.00
70969;BMP280;58630;43.022;25.100;2023-06-14T04:52:05;;;;22.00
70969;BMP280;58630;43.022;25.100;2023-06-14T04:54:31;;;;22.00
70969;BMP280;58630;43.022;25.100;2023-06-14T04:56:58;;;;22.00
70969;BMP280;58630;43.022;25.100;2023-06-14T04:59:24;;;;22.00
70969;BMP280;58630;43.022;25.100;2023-06-14T05:01:49;;;;21.90
70969;BMP280;58630;43.022;25.100;2023-06-14T05:04:15;;;;22.00
70969;BMP280;58630;43.022;25.100;2023-06-14T05:06:44;;;;21.90
70969;BMP280;58630;43.022;25.100;2023-06-14T05:09:13;;;;21.90
70969;BMP280;58630;43.022;25.100;2023-06-14T05:11:39;;;;21.90
70969;BMP280;58630;43.022;25.100;2023-06-14T05:14:05;;;;21.90
70969;BMP280;58630;43.022;25.100;2023-06-14T05:16:31;;;;21.90
70969;BMP280;58630;43.022;25.100;2023-06-14T05:18:57;;;;21.90
70969;BMP280;58630;43.022;25.100;2023-06-14T05:21:23;;;;21.90
70969;BMP280;58630;43.022;25.100;2023-06-14T05:23:48;;;;21.90
70969;BMP280;58630;43.022;25.100;2023-06-14T05:26:16;;;;21.90
70969;BMP280;58630;43.022;25.100;2023-06-14T05:28:41;;;;21.90
70969;BMP280;58630;43.022;25.100;2023-06-14T05:31:07;;;;21.90
70969;BMP280;58630;43.022;25.100;2023-06-14T05:33:32;;;;21.90
70969;BMP280;58630;43.022;25.100;2023-06-14T05:35:58;;;;21.90
70969;BMP280;58630;43.022;25.100;2023-06-14T05:38:23;;;;21.90
70969;BMP280;58630;43.022;25.100;2023-06-14T05:40:49;;;;21.90
70969;BMP280;58630;43.022;25.100;2023-06-14T05:43:14;;;;21.90
70969;BMP280;58630;43.022;25.100;2023-06-14T05:45:40;;;;21.90
70969;BMP280;58630;43.022;25.100;2023-06-14T05:48:06;;;;21.90
70969;BMP280;58630;43.022;25.100;2023-06-14T05:50:31;;;;21.90
70969;BMP280;58630;43.022;25.100;2023-06-14T05:52:57;;;;21.90
70969;BMP280;58630;43.022;25.100;2023-06-14T05:55:22;;;;21.90
70969;BMP280;58630;43.022;25.100;2023-06-14T05:57:48;;;;21.90
70969;BMP280;58630;43.022;25.100;2023-06-14T06:00:14;;;;21.90
70969;BMP280;58630;43.022;25.100;2023-06-14T06:02:41;;;;21.90
70969;BMP280;58630;43.022;25.100;2023-06-14T06:05:09;;;;21.90
70969;BMP280;58630;43.022;25.100;2023-06-14T06:07:34;;;;21.90
70969;BMP280;58630;43.022;25.100;2023-06-14T06:10:00;;;;21.90
70969;BMP280;58630;43.022;25.100;2023-06-14T06:12:25;;;;21.90
70969;BMP280;58630;43.022;25.100;2023-06-14T06:14:51;;;;21.90
70969;BMP280;58630;43.022;25.100;2023-06-14T06:17:16;;;;21.90
70969;BMP280;58630;43.022;25.100;2023-06-14T06:19:42;;;;21.90
70969;BMP280;58630;43.022;25.100;2023-06-14T06:22:08;;;;21.90
70969;BMP280;58630;43.022;25.100;2023-06-14T06:24:33;;;;21.90
70969;BMP280;58630;43.022;25.100;2023-06-14T06:26:59;;;;21.90
70969;BMP280;58630;43.022;25.100;2023-06-14T06:29:25;;;;21.90
70969;BMP280;58630;43.022;25.100;2023-06-14T06:31:51;;;;21.90
70969;BMP280;58630;43.022;25.100;2023-06-14T06:34:16;;;;22.00
70969;BMP280;58630;43.022;25.100;2023-06-14T06:36:42;;;;22.00
70969;BMP280;58630;43.022;25.100;2023-06-14T06:39:07;;;;22.00
70969;BMP280;58630;43.022;25.100;2023-06-14T06:41:38;;;;22.00
70969;BMP280;58630;43.022;25.100;2023-06-14T06:44:05;;;;22.00
70969;BMP280;58630;43.022;25.100;2023-06-14T06:46:31;;;;22.00
70969;BMP280;58630;43.022;25.100;2023-06-14T06:48:57;;;;22.00
70969;BMP280;58630;43.022;25.100;2023-06-14T06:51:23;;;;22.00
70969;BMP280;58630;43.022;25.100;2023-06-14T06:53:54;;;;22.00
70969;BMP280;58630;43.022;25.100;2023-06-14T06:56:20;;;;22.00
70969;BMP280;58630;43.022;25.100;2023-06-14T06:58:47;;;;22.10
70969;BMP280;58630;43.022;25.100;2023-06-14T07:01:12;;;;22.10
70969;BMP280;58630;43.022;25.100;2023-06-14T07:03:38;;;;22.10
70969;BMP280;58630;43.022;25.100;2023-06-14T07:06:04;;;;22.10
70969;BMP280;58630;43.022;25.100;2023-06-14T07:08:29;;;;22.10
70969;BMP280;58630;43.022;25.100;2023-06-14T07:10:55;;;;22.10
70969;BMP280;58630;43.022;25.100;2023-06-14T07:13:20;;;;22.10
70969;BMP280;58630;43.022;25.100;2023-06-14T07:15:46;;;;22.10
70969;BMP280;58630;43.022;25.100;2023-06-14T07:18:12;;;;22.10
70969;BMP280;58630;43.022;25.100;2023-06-14T07:20:38;;;;22.10
70969;BMP280;58630;43.022;25.100;2023-06-14T07:23:04;;;;22.10
70969;BMP280;58630;43.022;25.100;2023-06-14T07:25:30;;;;22.20
70969;BMP280;58630;43.022;25.100;2023-06-14T07:27:55;;;;22.20
70969;BMP280;58630;43.022;25.100;2023-06-14T07:30:21;;;;22.20
70969;BMP280;58630;43.022;25.100;2023-06-14T07:32:54;;;;22.20
70969;BMP280;58630;43.022;25.100;2023-06-14T07:35:19;;;;22.20
70969;BMP280;58630;43.022;25.100;2023-06-14T07:37:45;;;;22.20
70969;BMP280;58630;43.022;25.100;2023-06-14T07:40:12;;;;22.20
70969;BMP280;58630;43.022;25.100;2023-06-14T07:42:38;;;;22.20
70969;BMP280;58630;43.022;25.100;2023-06-14T07:45:04;;;;22.20
70969;BMP280;58630;43.022;25.100;2023-06-14T07:47:29;;;;22.20
70969;BMP280;58630;43.022;25.100;2023-06-14T07:49:55;;;;22.20
70969;BMP280;58630;43.022;25.100;2023-06-14T07:52:21;;;;22.30
70969;BMP280;58630;43.022;25.100;2023-06-14T07:54:46;;;;22.30
70969;BMP280;58630;43.022;25.100;2023-06-14T07:57:12;;;;22.30
70969;BMP280;58630;43.022;25.100;2023-06-14T07:59:38;;;;22.20
70969;BMP280;58630;43.022;25.100;2023-06-14T08:02:04;;;;22.30
70969;BMP280;58630;43.022;25.100;2023-06-14T08:04:29;;;;22.30
70969;BMP280;58630;43.022;25.100;2023-06-14T08:06:56;;;;22.30
70969;BMP280;58630;43.022;25.100;2023-06-14T08:09:21;;;;22.30
70969;BMP280;58630;43.022;25.100;2023-06-14T08:11:48;;;;22.30
70969;BMP280;58630;43.022;25.100;2023-06-14T08:14:13;;;;22.30
70969;BMP280;58630;43.022;25.100;2023-06-14T08:16:39;;;;22.30
70969;BMP280;58630;43.022;25.100;2023-06-14T08:19:04;;;;22.30
70969;BMP280;58630;43.022;25.100;2023-06-14T08:21:30;;;;22.30
70969;BMP280;58630;43.022;25.100;2023-06-14T08:23:58;;;;22.30
70969;BMP280;58630;43.022;25.100;2023-06-14T08:26:24;;;;22.30
70969;BMP280;58630;43.022;25.100;2023-06-14T08:28:54;;;;22.30
70969;BMP280;58630;43.022;25.100;2023-06-14T08:31:20;;;;22.30
70969;BMP280;58630;43.022;25.100;2023-06-14T08:33:46;;;;22.30
70969;BMP280;58630;43.022;25.100;2023-06-14T08:36:11;;;;22.30
70969;BMP280;58630;43.022;25.100;2023-06-14T08:38:38;;;;22.40
70969;BMP280;58630;43.022;25.100;2023-06-14T08:41:04;;;;22.40
70969;BMP280;58630;43.022;25.100;2023-06-14T08:43:31;;;;22.40
70969;BMP280;58630;43.022;25.100;2023-06-14T08:46:00;;;;22.40
70969;BMP280;58630;43.022;25.100;2023-06-14T08:48:26;;;;22.40
70969;BMP280;58630;43.022;25.100;2023-06-14T08:50:51;;;;22.40
70969;BMP280;58630;43.022;25.100;2023-06-14T08:53:19;;;;22.40
70969;BMP280;58630;43.022;25.100;2023-06-14T08:55:45;;;;22.40
70969;BMP280;58630;43.022;25.100;2023-06-14T08:58:11;;;;22.40
70969;BMP280;58630;43.022;25.100;2023-06-14T09:03:13;;;;22.50
70969;BMP280;58630;43.022;25.100;2023-06-14T09:05:39;;;;22.60
70969;BMP280;58630;43.022;25.100;2023-06-14T09:08:05;;;;22.70
70969;BMP280;58630;43.022;25.100;2023-06-14T09:10:31;;;;22.80
70969;BMP280;58630;43.022;25.100;2023-06-14T09:13:00;;;;22.80
70969;BMP280;58630;43.022;25.100;2023-06-14T09:15:26;;;;22.90
70969;BMP280;58630;43.022;25.100;2023-06-14T09:17:51;;;;23.00
70969;BMP280;58630;43.022;25.100;2023-06-14T09:20:18;;;;23.00
70969;BMP280;58630;43.022;25.100;2023-06-14T09:22:44;;;;23.10
70969;BMP280;58630;43.022;25.100;2023-06-14T09:25:10;;;;23.20
70969;BMP280;58630;43.022;25.100;2023-06-14T09:27:37;;;;23.20
70969;BMP280;58630;43.022;25.100;2023-06-14T09:30:05;;;;23.30
70969;BMP280;58630;43.022;25.100;2023-06-14T09:32:32;;;;23.30
70969;BMP280;58630;43.022;25.100;2023-06-14T09:35:01;;;;23.30
70969;BMP280;58630;43.022;25.100;2023-06-14T09:37:30;;;;23.30
70969;BMP280;58630;43.022;25.100;2023-06-14T09:39:56;;;;23.40
70969;BMP280;58630;43.022;25.100;2023-06-14T09:42:21;;;;23.40
70969;BMP280;58630;43.022;25.100;2023-06-14T09:44:51;;;;23.40
70969;BMP280;58630;43.022;25.100;2023-06-14T09:47:17;;;;23.40
70969;BMP280;58630;43.022;25.100;2023-06-14T09:49:43;;;;23.50
70969;BMP280;58630;43.022;25.100;2023-06-14T09:52:16;;;;23.50
70969;BMP280;58630;43.022;25.100;2023-06-14T09:54:42;;;;23.50
70969;BMP280;58630;43.022;25.100;2023-06-14T09:57:11;;;;23.60
70969;BMP280;58630;43.022;25.100;2023-06-14T09:59:37;;;;23.60
70969;BMP280;58630;43.022;25.100;2023-06-14T10:02:07;;;;23.70
70969;BMP280;58630;43.022;25.100;2023-06-14T10:04:34;;;;23.70
70969;BMP280;58630;43.022;25.100;2023-06-14T10:07:00;;;;23.70
70969;BMP280;58630;43.022;25.100;2023-06-14T10:09:27;;;;23.80
70969;BMP280;58630;43.022;25.100;2023-06-14T10:11:53;;;;23.90
70969;BMP280;58630;43.022;25.100;2023-06-14T10:14:19;;;;23.90
70969;BMP280;58630;43.022;25.100;2023-06-14T10:16:49;;;;24.00
70969;BMP280;58630;43.022;25.100;2023-06-14T10:19:39;;;;24.00
70969;BMP280;58630;43.022;25.100;2023-06-14T10:22:04;;;;24.10
70969;BMP280;58630;43.022;25.100;2023-06-14T10:24:44;;;;24.20
70969;BMP280;58630;43.022;25.100;2023-06-14T10:27:14;;;;24.20
70969;BMP280;58630;43.022;25.100;2023-06-14T10:32:26;;;;24.20
70969;BMP280;58630;43.022;25.100;2023-06-14T10:34:55;;;;24.30
70969;BMP280;58630;43.022;25.100;2023-06-14T10:37:21;;;;24.40
70969;BMP280;58630;43.022;25.100;2023-06-14T10:39:46;;;;24.40
70969;BMP280;58630;43.022;25.100;2023-06-14T10:42:12;;;;24.40
70969;BMP280;58630;43.022;25.100;2023-06-14T10:44:39;;;;24.50
70969;BMP280;58630;43.022;25.100;2023-06-14T10:49:58;;;;24.60
70969;BMP280;58630;43.022;25.100;2023-06-14T10:52:28;;;;24.60
70969;BMP280;58630;43.022;25.100;2023-06-14T10:57:29;;;;24.70
70969;BMP280;58630;43.022;25.100;2023-06-14T10:59:57;;;;24.70
70969;BMP280;58630;43.022;25.100;2023-06-14T11:05:03;;;;24.80
70969;BMP280;58630;43.022;25.100;2023-06-14T11:12:33;;;;25.00
70969;BMP280;58630;43.022;25.100;2023-06-14T11:15:01;;;;25.10
70969;BMP280;58630;43.022;25.100;2023-06-14T11:17:26;;;;25.20
70969;BMP280;58630;43.022;25.100;2023-06-14T11:20:07;;;;25.20
70969;BMP280;58630;43.022;25.100;2023-06-14T11:22:38;;;;25.30
70969;BMP280;58630;43.022;25.100;2023-06-14T11:25:04;;;;25.30
70969;BMP280;58630;43.022;25.100;2023-06-14T11:27:32;;;;25.30
70969;BMP280;58630;43.022;25.100;2023-06-14T11:29:58;;;;25.30
70969;BMP280;58630;43.022;25.100;2023-06-14T11:32:24;;;;25.30
70969;BMP280;58630;43.022;25.100;2023-06-14T11:34:49;;;;25.40
70969;BMP280;58630;43.022;25.100;2023-06-14T11:37:17;;;;25.40
70969;BMP280;58630;43.022;25.100;2023-06-14T11:39:45;;;;25.40
70969;BMP280;58630;43.022;25.100;2023-06-14T11:42:17;;;;25.40
70969;BMP280;58630;43.022;25.100;2023-06-14T11:44:46;;;;25.50
70969;BMP280;58630;43.022;25.100;2023-06-14T11:47:12;;;;25.60
70969;BMP280;58630;43.022;25.100;2023-06-14T11:49:38;;;;25.70
70969;BMP280;58630;43.022;25.100;2023-06-14T11:52:04;;;;25.80
70969;BMP280;58630;43.022;25.100;2023-06-14T11:54:31;;;;25.80
70969;BMP280;58630;43.022;25.100;2023-06-14T11:56:57;;;;25.80
70969;BMP280;58630;43.022;25.100;2023-06-14T11:59:23;;;;25.90
70969;BMP280;58630;43.022;25.100;2023-06-14T12:01:49;;;;25.90
70969;BMP280;58630;43.022;25.100;2023-06-14T12:04:22;;;;26.00
70969;BMP280;58630;43.022;25.100;2023-06-14T12:06:48;;;;26.00
70969;BMP280;58630;43.022;25.100;2023-06-14T12:09:14;;;;26.00
70969;BMP280;58630;43.022;25.100;2023-06-14T12:11:42;;;;26.10
70969;BMP280;58630;43.022;25.100;2023-06-14T12:14:08;;;;26.10
70969;BMP280;58630;43.022;25.100;2023-06-14T12:16:35;;;;26.20
70969;BMP280;58630;43.022;25.100;2023-06-14T12:19:13;;;;26.20
70969;BMP280;58630;43.022;25.100;2023-06-14T12:21:39;;;;26.30
70969;BMP280;58630;43.022;25.100;2023-06-14T12:24:08;;;;26.30
70969;BMP280;58630;43.022;25.100;2023-06-14T12:26:37;;;;26.40
70969;BMP280;58630;43.022;25.100;2023-06-14T12:29:04;;;;26.40
70969;BMP280;58630;43.022;25.100;2023-06-14T12:31:30;;;;26.40
70969;BMP280;58630;43.022;25.100;2023-06-14T12:33:55;;;;26.50
70969;BMP280;58630;43.022;25.100;2023-06-14T12:36:21;;;;26.60
70969;BMP280;58630;43.022;25.100;2023-06-14T12:38:46;;;;26.60
70969;BMP280;58630;43.022;25.100;2023-06-14T12:41:12;;;;26.60
70969;BMP280;58630;43.022;25.100;2023-06-14T12:43:39;;;;26.60
70969;BMP280;58630;43.022;25.100;2023-06-14T12:46:05;;;;26.70
70969;BMP280;58630;43.022;25.100;2023-06-14T12:48:31;;;;26.70
70969;BMP280;58630;43.022;25.100;2023-06-14T12:50:57;;;;26.80
70969;BMP280;58630;43.022;25.100;2023-06-14T12:53:23;;;;26.80
70969;BMP280;58630;43.022;25.100;2023-06-14T12:55:49;;;;26.90
70969;BMP280;58630;43.022;25.100;2023-06-14T12:58:14;;;;26.80
70969;BMP280;58630;43.022;25.100;2023-06-14T13:00:42;;;;26.80
70969;BMP280;58630;43.022;25.100;2023-06-14T13:03:08;;;;26.80
70969;BMP280;58630;43.022;25.100;2023-06-14T13:05:33;;;;26.90
70969;BMP280;58630;43.022;25.100;2023-06-14T13:07:59;;;;26.80
70969;BMP280;58630;43.022;25.100;2023-06-14T13:10:25;;;;26.90
70969;BMP280;58630;43.022;25.100;2023-06-14T13:12:51;;;;26.90
70969;BMP280;58630;43.022;25.100;2023-06-14T13:15:16;;;;26.80
70969;BMP280;58630;43.022;25.100;2023-06-14T13:17:42;;;;26.80
70969;BMP280;58630;43.022;25.100;2023-06-14T13:20:09;;;;26.80
70969;BMP280;58630;43.022;25.100;2023-06-14T13:22:35;;;;26.80
70969;BMP280;58630;43.022;25.100;2023-06-14T13:25:01;;;;26.80
70969;BMP280;58630;43.022;25.100;2023-06-14T13:27:26;;;;26.80
70969;BMP280;58630;43.022;25.100;2023-06-14T13:29:52;;;;26.80
70969;BMP280;58630;43.022;25.100;2023-06-14T13:32:20;;;;26.80
70969;BMP280;58630;43.022;25.100;2023-06-14T13:34:46;;;;26.90
70969;BMP280;58630;43.022;25.100;2023-06-14T13:37:12;;;;27.00
70969;BMP280;58630;43.022;25.100;2023-06-14T13:39:37;;;;27.00
70969;BMP280;58630;43.022;25.100;2023-06-14T13:42:03;;;;27.10
70969;BMP280;58630;43.022;25.100;2023-06-14T13:44:29;;;;27.10
70969;BMP280;58630;43.022;25.100;2023-06-14T13:46:54;;;;27.20
70969;BMP280;58630;43.022;25.100;2023-06-14T13:49:20;;;;27.30
70969;BMP280;58630;43.022;25.100;2023-06-14T13:51:45;;;;27.30
70969;BMP280;58630;43.022;25.100;2023-06-14T13:54:14;;;;27.50
70969;BMP280;58630;43.022;25.100;2023-06-14T13:56:40;;;;27.60
70969;BMP280;58630;43.022;25.100;2023-06-14T13:59:06;;;;27.70
70969;BMP280;58630;43.022;25.100;2023-06-14T14:01:32;;;;27.70
70969;BMP280;58630;43.022;25.100;2023-06-14T14:03:57;;;;27.80
70969;BMP280;58630;43.022;25.100;2023-06-14T14:06:24;;;;27.80
70969;BMP280;58630;43.022;25.100;2023-06-14T14:08:49;;;;27.80
70969;BMP280;58630;43.022;25.100;2023-06-14T14:11:16;;;;27.30
70969;BMP280;58630;43.022;25.100;2023-06-14T14:13:41;;;;27.20
70969;BMP280;58630;43.022;25.100;2023-06-14T14:16:07;;;;27.10
70969;BMP280;58630;43.022;25.100;2023-06-14T14:18:33;;;;27.20
70969;BMP280;58630;43.022;25.100;2023-06-14T14:20:58;;;;27.10
70969;BMP280;58630;43.022;25.100;2023-06-14T14:23:25;;;;27.10
70969;BMP280;58630;43.022;25.100;2023-06-14T14:25:51;;;;27.10
70969;BMP280;58630;43.022;25.100;2023-06-14T14:28:17;;;;27.10
70969;BMP280;58630;43.022;25.100;2023-06-14T14:30:44;;;;27.10
70969;BMP280;58630;43.022;25.100;2023-06-14T14:33:10;;;;27.20
70969;BMP280;58630;43.022;25.100;2023-06-14T14:35:44;;;;27.30
70969;BMP280;58630;43.022;25.100;2023-06-14T14:38:13;;;;27.40
70969;BMP280;58630;43.022;25.100;2023-06-14T14:40:39;;;;27.50
70969;BMP280;58630;43.022;25.100;2023-06-14T14:43:06;;;;27.70
70969;BMP280;58630;43.022;25.100;2023-06-14T14:45:31;;;;27.90
70969;BMP280;58630;43.022;25.100;2023-06-14T14:47:57;;;;27.90
70969;BMP280;58630;43.022;25.100;2023-06-14T14:50:22;;;;27.90
70969;BMP280;58630;43.022;25.100;2023-06-14T14:52:48;;;;27.90
70969;BMP280;58630;43.022;25.100;2023-06-14T14:55:14;;;;28.00
70969;BMP280;58630;43.022;25.100;2023-06-14T14:57:39;;;;28.00
70969;BMP280;58630;43.022;25.100;2023-06-14T15:00:05;;;;28.20
70969;BMP280;58630;43.022;25.100;2023-06-14T15:02:31;;;;28.30
70969;BMP280;58630;43.022;25.100;2023-06-14T15:04:57;;;;28.10
70969;BMP280;58630;43.022;25.100;2023-06-14T15:07:29;;;;27.70
70969;BMP280;58630;43.022;25.100;2023-06-14T15:09:55;;;;27.40
70969;BMP280;58630;43.022;25.100;2023-06-14T15:12:21;;;;27.40
70969;BMP280;58630;43.022;25.100;2023-06-14T15:14:51;;;;27.40
70969;BMP280;58630;43.022;25.100;2023-06-14T15:17:20;;;;27.20
70969;BMP280;58630;43.022;25.100;2023-06-14T15:19:46;;;;27.20
70969;BMP280;58630;43.022;25.100;2023-06-14T15:22:12;;;;27.10
70969;BMP280;58630;43.022;25.100;2023-06-14T15:24:38;;;;27.10
70969;BMP280;58630;43.022;25.100;2023-06-14T15:27:03;;;;27.10
70969;BMP280;58630;43.022;25.100;2023-06-14T15:29:29;;;;27.30
70969;BMP280;58630;43.022;25.100;2023-06-14T15:31:55;;;;27.30
70969;BMP280;58630;43.022;25.100;2023-06-14T15:34:22;;;;27.10
70969;BMP280;58630;43.022;25.100;2023-06-14T15:36:48;;;;27.10
70969;BMP280;58630;43.022;25.100;2023-06-14T15:39:13;;;;27.00
70969;BMP280;58630;43.022;25.100;2023-06-14T15:41:39;;;;27.10
70969;BMP280;58630;43.022;25.100;2023-06-14T15:44:04;;;;27.00
70969;BMP280;58630;43.022;25.100;2023-06-14T15:46:30;;;;27.00
70969;BMP280;58630;43.022;25.100;2023-06-14T15:48:56;;;;27.00
70969;BMP280;58630;43.022;25.100;2023-06-14T15:51:21;;;;27.00
70969;BMP280;58630;43.022;25.100;2023-06-14T15:53:47;;;;27.00
70969;BMP280;58630;43.022;25.100;2023-06-14T15:56:12;;;;27.10
70969;BMP280;58630;43.022;25.100;2023-06-14T15:58:38;;;;27.10